sensor_id;sensor_type;location;lat;lon;timestamp;noise_LAeq;noise_LA_min;noise_LA_max;noise_LA01;noise_LA95
66454;Laerm;75808;51.436;5.978;2024-03-08T00:00:19;43.30;29.54;60.10;;
66454;Laerm;75808;51.436;5.978;2024-03-08T00:00:29;31.50;30.08;33.26;;
66454;Laerm;75808;51.436;5.978;2024-03-08T00:00:43;31.39;29.66;32.88;;
66454;Laerm;75808;51.436;5.978;2024-03-08T00:00:53;31.55;29.47;33.45;;
66454;Laerm;75808;51.436;5.978;2024-03-08T00:01:03;31.48;30.00;32.94;;
66454;Laerm;75808;51.436;5.978;2024-03-08T00:01:14;31.49;30.02;32.80;;
66454;Laerm;75808;51.436;5.978;2024-03-08T00:01:26;31.78;29.44;33.95;;
66454;Laerm;75808;51.436;5.978;2024-03-08T00:01:36;31.88;29.85;34.03;;
66454;Laerm;75808;51.436;5.978;2024-03-08T00:01:47;31.88;30.24;33.51;;
66454;Laerm;75808;51.436;5.978;2024-03-08T00:01:57;31.69;29.68;33.56;;
66454;Laerm;75808;51.436;5.978;2024-03-08T00:02:07;31.88;30.45;33.68;;
66454;Laerm;75808;51.436;5.978;2024-03-08T00:02:17;32.04;30.05;33.55;;
66454;Laerm;75808;51.436;5.978;2024-03-08T00:02:29;31.74;30.04;33.45;;
66454;Laerm;75808;51.436;5.978;2024-03-08T00:02:39;31.52;29.60;33.74;;
66454;Laerm;75808;51.436;5.978;2024-03-08T00:02:50;31.69;29.65;33.70;;
66454;Laerm;75808;51.436;5.978;2024-03-08T00:03:04;31.85;30.36;33.64;;
66454;Laerm;75808;51.436;5.978;2024-03-08T00:03:14;32.04;30.12;33.66;;
66454;Laerm;75808;51.436;5.978;2024-03-08T00:03:24;31.81;30.22;33.37;;
66454;Laerm;75808;51.436;5.978;2024-03-08T00:03:35;32.08;29.81;34.62;;
66454;Laerm;75808;51.436;5.978;2024-03-08T00:03:45;31.88;30.42;33.68;;
66454;Laerm;75808;51.436;5.978;2024-03-08T00:03:55;32.03;30.19;34.10;;
66454;Laerm;75808;51.436;5.978;2024-03-08T00:04:06;32.01;30.51;33.62;;
66454;Laerm;75808;51.436;5.978;2024-03-08T00:04:16;32.20;30.77;34.88;;
66454;Laerm;75808;51.436;5.978;2024-03-08T00:04:26;32.02;30.40;33.77;;
66454;Laerm;75808;51.436;5.978;2024-03-08T00:04:37;32.49;30.70;34.63;;
66454;Laerm;75808;51.436;5.978;2024-03-08T00:04:47;32.00;30.22;33.91;;
66454;Laerm;75808;51.436;5.978;2024-03-08T00:04:57;32.15;30.31;34.59;;
66454;Laerm;75808;51.436;5.978;2024-03-08T00:05:08;32.21;30.67;34.39;;
66454;Laerm;75808;51.436;5.978;2024-03-08T00:05:19;32.21;30.51;34.23;;
66454;Laerm;75808;51.436;5.978;2024-03-08T00:05:29;31.77;29.77;33.74;;
66454;Laerm;75808;51.436;5.978;2024-03-08T00:05:39;31.91;30.36;33.63;;
66454;Laerm;75808;51.436;5.978;2024-03-08T00:05:50;32.09;30.06;33.88;;
66454;Laerm;75808;51.436;5.978;2024-03-08T00:06:00;32.21;30.70;34.04;;
66454;Laerm;75808;51.436;5.978;2024-03-08T00:06:10;32.48;30.53;34.39;;
66454;Laerm;75808;51.436;5.978;2024-03-08T00:06:21;32.23;29.93;35.05;;
66454;Laerm;75808;51.436;5.978;2024-03-08T00:06:32;31.92;29.88;33.99;;
66454;Laerm;75808;51.436;5.978;2024-03-08T00:06:42;31.87;30.39;33.72;;
66454;Laerm;75808;51.436;5.978;2024-03-08T00:06:55;31.89;30.29;34.07;;
66454;Laerm;75808;51.436;5.978;2024-03-08T00:07:06;32.41;30.81;33.99;;
66454;Laerm;75808;51.436;5.978;2024-03-08T00:07:17;32.07;30.33;33.98;;
66454;Laerm;75808;51.436;5.978;2024-03-08T00:07:27;31.57;30.01;33.24;;
66454;Laerm;75808;51.436;5.978;2024-03-08T00:07:38;32.35;30.35;35.35;;
66454;Laerm;75808;51.436;5.978;2024-03-08T00:07:48;32.65;30.28;35.40;;
66454;Laerm;75808;51.436;5.978;2024-03-08T00:07:59;32.05;30.62;34.09;;
66454;Laerm;75808;51.436;5.978;2024-03-08T00:08:10;32.17;30.32;34.44;;
66454;Laerm;75808;51.436;5.978;2024-03-08T00:08:20;31.94;30.51;33.79;;
66454;Laerm;75808;51.436;5.978;2024-03-08T00:08:30;32.00;30.04;33.86;;
66454;Laerm;75808;51.436;5.978;2024-03-08T00:08:41;31.80;30.20;33.19;;
66454;Laerm;75808;51.436;5.978;2024-03-08T00:08:51;32.34;30.33;33.93;;
66454;Laerm;75808;51.436;5.978;2024-03-08T00:09:01;32.14;30.47;33.95;;
66454;Laerm;75808;51.436;5.978;2024-03-08T00:09:12;32.12;30.48;34.02;;
66454;Laerm;75808;51.436;5.978;2024-03-08T00:09:22;32.53;30.39;34.36;;
66454;Laerm;75808;51.436;5.978;2024-03-08T00:09:32;32.51;30.07;34.89;;
66454;Laerm;75808;51.436;5.978;2024-03-08T00:09:43;31.91;29.89;33.73;;
66454;Laerm;75808;51.436;5.978;2024-03-08T00:09:53;32.34;30.24;34.52;;
66454;Laerm;75808;51.436;5.978;2024-03-08T00:10:04;32.04;30.24;33.89;;
66454;Laerm;75808;51.436;5.978;2024-03-08T00:10:14;32.18;30.15;37.00;;
66454;Laerm;75808;51.436;5.978;2024-03-08T00:10:24;31.90;30.15;34.05;;
66454;Laerm;75808;51.436;5.978;2024-03-08T00:10:35;31.93;30.32;33.92;;
66454;Laerm;75808;51.436;5.978;2024-03-08T00:10:45;31.91;30.21;33.78;;
66454;Laerm;75808;51.436;5.978;2024-03-08T00:10:55;31.51;29.93;33.03;;
66454;Laerm;75808;51.436;5.978;2024-03-08T00:11:06;31.41;29.64;33.14;;
66454;Laerm;75808;51.436;5.978;2024-03-08T00:11:16;31.40;29.52;33.61;;
66454;Laerm;75808;51.436;5.978;2024-03-08T00:11:26;31.41;29.83;33.10;;
66454;Laerm;75808;51.436;5.978;2024-03-08T00:11:37;31.32;29.45;32.76;;
66454;Laerm;75808;51.436;5.978;2024-03-08T00:11:47;31.54;30.00;33.08;;
66454;Laerm;75808;51.436;5.978;2024-03-08T00:12:00;31.39;29.82;33.51;;
66454;Laerm;75808;51.436;5.978;2024-03-08T00:12:10;31.64;30.19;33.76;;
66454;Laerm;75808;51.436;5.978;2024-03-08T00:12:20;31.52;29.92;33.17;;
66454;Laerm;75808;51.436;5.978;2024-03-08T00:12:31;31.37;29.87;33.16;;
66454;Laerm;75808;51.436;5.978;2024-03-08T00:12:42;31.46;29.81;32.91;;
66454;Laerm;75808;51.436;5.978;2024-03-08T00:12:52;31.53;30.21;33.62;;
66454;Laerm;75808;51.436;5.978;2024-03-08T00:13:03;31.62;29.69;33.90;;
66454;Laerm;75808;51.436;5.978;2024-03-08T00:13:14;31.56;29.80;33.85;;
66454;Laerm;75808;51.436;5.978;2024-03-08T00:13:24;31.78;29.93;35.25;;
66454;Laerm;75808;51.436;5.978;2024-03-08T00:13:35;32.04;30.18;34.49;;
66454;Laerm;75808;51.436;5.978;2024-03-08T00:13:46;33.07;30.73;36.15;;
66454;Laerm;75808;51.436;5.978;2024-03-08T00:13:57;33.46;30.91;36.01;;
66454;Laerm;75808;51.436;5.978;2024-03-08T00:14:07;32.93;30.82;35.87;;
66454;Laerm;75808;51.436;5.978;2024-03-08T00:14:17;32.86;30.84;35.10;;
66454;Laerm;75808;51.436;5.978;2024-03-08T00:14:28;44.02;32.92;54.38;;
66454;Laerm;75808;51.436;5.978;2024-03-08T00:14:38;35.37;31.33;41.11;;
66454;Laerm;75808;51.436;5.978;2024-03-08T00:14:49;38.00;31.82;43.86;;
66454;Laerm;75808;51.436;5.978;2024-03-08T00:14:59;37.61;32.03;45.13;;
66454;Laerm;75808;51.436;5.978;2024-03-08T00:15:13;33.38;31.00;36.47;;
66454;Laerm;75808;51.436;5.978;2024-03-08T00:15:24;33.94;30.26;44.14;;
66454;Laerm;75808;51.436;5.978;2024-03-08T00:15:34;32.65;30.58;36.46;;
66454;Laerm;75808;51.436;5.978;2024-03-08T00:15:45;33.77;31.16;42.49;;
66454;Laerm;75808;51.436;5.978;2024-03-08T00:15:55;32.55;30.85;35.31;;
66454;Laerm;75808;51.436;5.978;2024-03-08T00:16:07;32.60;30.71;34.75;;
66454;Laerm;75808;51.436;5.978;2024-03-08T00:16:19;32.31;30.34;34.74;;
66454;Laerm;75808;51.436;5.978;2024-03-08T00:16:29;32.15;30.10;34.38;;
66454;Laerm;75808;51.436;5.978;2024-03-08T00:16:39;32.38;29.94;34.58;;
66454;Laerm;75808;51.436;5.978;2024-03-08T00:16:53;32.25;29.95;35.17;;
66454;Laerm;75808;51.436;5.978;2024-03-08T00:17:04;32.54;30.77;34.24;;
66454;Laerm;75808;51.436;5.978;2024-03-08T00:17:14;32.39;30.75;33.91;;
66454;Laerm;75808;51.436;5.978;2024-03-08T00:17:25;32.40;30.63;34.92;;
66454;Laerm;75808;51.436;5.978;2024-03-08T00:17:37;32.54;30.14;34.15;;
66454;Laerm;75808;51.436;5.978;2024-03-08T00:17:48;32.26;30.68;34.41;;
66454;Laerm;75808;51.436;5.978;2024-03-08T00:17:58;32.24;30.80;34.10;;
66454;Laerm;75808;51.436;5.978;2024-03-08T00:18:08;32.29;30.48;33.86;;
66454;Laerm;75808;51.436;5.978;2024-03-08T00:18:19;32.22;30.43;33.77;;
66454;Laerm;75808;51.436;5.978;2024-03-08T00:18:29;32.49;30.75;34.70;;
66454;Laerm;75808;51.436;5.978;2024-03-08T00:18:39;32.46;30.66;34.79;;
66454;Laerm;75808;51.436;5.978;2024-03-08T00:18:50;32.52;29.98;34.88;;
66454;Laerm;75808;51.436;5.978;2024-03-08T00:19:00;32.36;30.67;33.93;;
66454;Laerm;75808;51.436;5.978;2024-03-08T00:19:10;32.08;30.37;33.62;;
66454;Laerm;75808;51.436;5.978;2024-03-08T00:19:21;32.31;30.48;34.60;;
66454;Laerm;75808;51.436;5.978;2024-03-08T00:19:31;32.30;30.16;33.93;;
66454;Laerm;75808;51.436;5.978;2024-03-08T00:19:41;32.40;30.62;34.82;;
66454;Laerm;75808;51.436;5.978;2024-03-08T00:19:51;32.44;30.31;35.35;;
66454;Laerm;75808;51.436;5.978;2024-03-08T00:20:02;32.16;30.38;33.85;;
66454;Laerm;75808;51.436;5.978;2024-03-08T00:20:18;32.54;30.45;34.23;;
66454;Laerm;75808;51.436;5.978;2024-03-08T00:20:28;32.66;31.34;34.87;;
66454;Laerm;75808;51.436;5.978;2024-03-08T00:20:38;32.60;30.69;34.71;;
66454;Laerm;75808;51.436;5.978;2024-03-08T00:20:49;32.78;31.13;34.33;;
66454;Laerm;75808;51.436;5.978;2024-03-08T00:20:59;32.81;31.32;34.78;;
66454;Laerm;75808;51.436;5.978;2024-03-08T00:21:10;32.67;30.75;34.73;;
66454;Laerm;75808;51.436;5.978;2024-03-08T00:21:21;32.66;30.61;35.09;;
66454;Laerm;75808;51.436;5.978;2024-03-08T00:21:32;32.23;30.51;34.21;;
66454;Laerm;75808;51.436;5.978;2024-03-08T00:21:42;32.15;30.67;33.64;;
66454;Laerm;75808;51.436;5.978;2024-03-08T00:21:52;32.97;31.03;35.20;;
66454;Laerm;75808;51.436;5.978;2024-03-08T00:22:02;32.77;30.46;35.12;;
66454;Laerm;75808;51.436;5.978;2024-03-08T00:22:13;42.52;32.20;49.31;;
66454;Laerm;75808;51.436;5.978;2024-03-08T00:22:23;38.63;32.23;46.79;;
66454;Laerm;75808;51.436;5.978;2024-03-08T00:22:37;32.11;30.41;34.03;;
66454;Laerm;75808;51.436;5.978;2024-03-08T00:22:47;31.86;29.72;33.64;;
66454;Laerm;75808;51.436;5.978;2024-03-08T00:22:57;31.48;30.10;33.31;;
66454;Laerm;75808;51.436;5.978;2024-03-08T00:23:08;31.25;29.92;32.84;;
66454;Laerm;75808;51.436;5.978;2024-03-08T00:23:18;31.14;29.92;32.92;;
66454;Laerm;75808;51.436;5.978;2024-03-08T00:23:28;31.38;29.58;32.76;;
66454;Laerm;75808;51.436;5.978;2024-03-08T00:23:39;31.43;29.92;33.19;;
66454;Laerm;75808;51.436;5.978;2024-03-08T00:23:49;31.38;29.53;33.04;;
66454;Laerm;75808;51.436;5.978;2024-03-08T00:23:59;31.57;30.14;33.28;;
66454;Laerm;75808;51.436;5.978;2024-03-08T00:24:10;31.51;29.36;33.06;;
66454;Laerm;75808;51.436;5.978;2024-03-08T00:24:20;32.01;29.74;34.47;;
66454;Laerm;75808;51.436;5.978;2024-03-08T00:24:35;32.07;30.38;34.05;;
66454;Laerm;75808;51.436;5.978;2024-03-08T00:24:45;31.86;29.96;34.29;;
66454;Laerm;75808;51.436;5.978;2024-03-08T00:24:55;32.12;30.15;33.85;;
66454;Laerm;75808;51.436;5.978;2024-03-08T00:25:06;32.26;30.66;34.71;;
66454;Laerm;75808;51.436;5.978;2024-03-08T00:25:19;32.62;30.46;34.78;;
66454;Laerm;75808;51.436;5.978;2024-03-08T00:25:30;32.59;30.57;34.79;;
66454;Laerm;75808;51.436;5.978;2024-03-08T00:25:40;32.35;30.60;34.53;;
66454;Laerm;75808;51.436;5.978;2024-03-08T00:25:51;32.54;30.76;35.13;;
66454;Laerm;75808;51.436;5.978;2024-03-08T00:26:01;32.06;30.07;33.87;;
66454;Laerm;75808;51.436;5.978;2024-03-08T00:26:13;31.96;30.11;34.02;;
66454;Laerm;75808;51.436;5.978;2024-03-08T00:26:24;32.05;30.73;34.02;;
66454;Laerm;75808;51.436;5.978;2024-03-08T00:26:34;31.71;30.28;33.44;;
66454;Laerm;75808;51.436;5.978;2024-03-08T00:26:44;31.57;30.01;32.88;;
66454;Laerm;75808;51.436;5.978;2024-03-08T00:26:54;31.69;30.07;33.31;;
66454;Laerm;75808;51.436;5.978;2024-03-08T00:27:05;31.33;29.96;33.48;;
66454;Laerm;75808;51.436;5.978;2024-03-08T00:27:16;31.33;29.97;32.76;;
66454;Laerm;75808;51.436;5.978;2024-03-08T00:27:26;31.17;29.86;32.82;;
66454;Laerm;75808;51.436;5.978;2024-03-08T00:27:36;31.39;29.88;33.12;;
66454;Laerm;75808;51.436;5.978;2024-03-08T00:27:48;31.23;29.87;32.78;;
66454;Laerm;75808;51.436;5.978;2024-03-08T00:27:59;31.31;28.98;32.83;;
66454;Laerm;75808;51.436;5.978;2024-03-08T00:28:10;31.44;30.06;32.96;;
66454;Laerm;75808;51.436;5.978;2024-03-08T00:28:23;31.39;29.48;32.82;;
66454;Laerm;75808;51.436;5.978;2024-03-08T00:28:35;31.16;29.79;32.63;;
66454;Laerm;75808;51.436;5.978;2024-03-08T00:28:45;31.22;29.65;32.78;;
66454;Laerm;75808;51.436;5.978;2024-03-08T00:28:55;31.30;29.91;32.94;;
66454;Laerm;75808;51.436;5.978;2024-03-08T00:29:06;31.45;30.04;33.52;;
66454;Laerm;75808;51.436;5.978;2024-03-08T00:29:17;31.50;29.76;33.38;;
66454;Laerm;75808;51.436;5.978;2024-03-08T00:29:28;31.55;29.96;34.79;;
66454;Laerm;75808;51.436;5.978;2024-03-08T00:29:38;31.56;29.80;33.16;;
66454;Laerm;75808;51.436;5.978;2024-03-08T00:29:51;31.85;29.73;33.83;;
66454;Laerm;75808;51.436;5.978;2024-03-08T00:30:01;31.84;30.30;34.07;;
66454;Laerm;75808;51.436;5.978;2024-03-08T00:30:12;32.24;30.52;33.99;;
66454;Laerm;75808;51.436;5.978;2024-03-08T00:30:25;34.57;31.03;39.75;;
66454;Laerm;75808;51.436;5.978;2024-03-08T00:30:35;39.37;32.09;44.55;;
66454;Laerm;75808;51.436;5.978;2024-03-08T00:30:45;32.72;30.86;35.05;;
66454;Laerm;75808;51.436;5.978;2024-03-08T00:30:56;32.12;30.37;33.92;;
66454;Laerm;75808;51.436;5.978;2024-03-08T00:31:07;45.41;29.48;60.52;;
66454;Laerm;75808;51.436;5.978;2024-03-08T00:31:17;31.97;30.40;33.39;;
66454;Laerm;75808;51.436;5.978;2024-03-08T00:31:27;31.66;29.74;33.60;;
66454;Laerm;75808;51.436;5.978;2024-03-08T00:31:38;31.55;29.72;35.46;;
66454;Laerm;75808;51.436;5.978;2024-03-08T00:31:48;31.58;30.11;33.38;;
66454;Laerm;75808;51.436;5.978;2024-03-08T00:31:58;31.95;30.38;34.34;;
66454;Laerm;75808;51.436;5.978;2024-03-08T00:32:09;31.78;29.77;33.31;;
66454;Laerm;75808;51.436;5.978;2024-03-08T00:32:19;31.56;29.85;33.20;;
66454;Laerm;75808;51.436;5.978;2024-03-08T00:32:29;31.68;29.90;37.29;;
66454;Laerm;75808;51.436;5.978;2024-03-08T00:32:41;31.69;30.15;33.49;;
66454;Laerm;75808;51.436;5.978;2024-03-08T00:32:52;31.59;30.20;33.96;;
66454;Laerm;75808;51.436;5.978;2024-03-08T00:33:02;31.55;30.09;33.03;;
66454;Laerm;75808;51.436;5.978;2024-03-08T00:33:12;31.48;29.84;33.11;;
66454;Laerm;75808;51.436;5.978;2024-03-08T00:33:23;31.76;29.89;33.76;;
66454;Laerm;75808;51.436;5.978;2024-03-08T00:33:33;31.64;30.06;33.41;;
66454;Laerm;75808;51.436;5.978;2024-03-08T00:33:43;31.54;30.01;33.10;;
66454;Laerm;75808;51.436;5.978;2024-03-08T00:33:53;31.64;30.31;32.98;;
66454;Laerm;75808;51.436;5.978;2024-03-08T00:34:04;31.42;29.90;32.92;;
66454;Laerm;75808;51.436;5.978;2024-03-08T00:34:14;31.32;29.92;32.76;;
66454;Laerm;75808;51.436;5.978;2024-03-08T00:34:24;31.43;29.81;33.16;;
66454;Laerm;75808;51.436;5.978;2024-03-08T00:34:35;31.81;29.74;33.91;;
66454;Laerm;75808;51.436;5.978;2024-03-08T00:34:46;31.71;29.97;35.11;;
66454;Laerm;75808;51.436;5.978;2024-03-08T00:34:57;31.85;30.03;39.18;;
66454;Laerm;75808;51.436;5.978;2024-03-08T00:35:07;31.94;30.13;34.26;;
66454;Laerm;75808;51.436;5.978;2024-03-08T00:35:17;32.01;30.14;33.87;;
66454;Laerm;75808;51.436;5.978;2024-03-08T00:35:28;31.88;29.83;33.55;;
66454;Laerm;75808;51.436;5.978;2024-03-08T00:35:38;32.33;29.97;34.62;;
66454;Laerm;75808;51.436;5.978;2024-03-08T00:35:48;32.22;30.07;34.21;;
66454;Laerm;75808;51.436;5.978;2024-03-08T00:35:59;32.45;30.59;34.52;;
66454;Laerm;75808;51.436;5.978;2024-03-08T00:36:09;32.32;30.68;34.48;;
66454;Laerm;75808;51.436;5.978;2024-03-08T00:36:19;32.86;30.63;35.05;;
66454;Laerm;75808;51.436;5.978;2024-03-08T00:36:30;32.74;30.49;34.40;;
66454;Laerm;75808;51.436;5.978;2024-03-08T00:36:40;32.70;30.85;34.73;;
66454;Laerm;75808;51.436;5.978;2024-03-08T00:36:50;32.43;30.76;34.28;;
66454;Laerm;75808;51.436;5.978;2024-03-08T00:37:02;32.40;30.73;34.06;;
66454;Laerm;75808;51.436;5.978;2024-03-08T00:37:13;32.36;30.43;36.66;;
66454;Laerm;75808;51.436;5.978;2024-03-08T00:37:23;32.66;30.47;35.00;;
66454;Laerm;75808;51.436;5.978;2024-03-08T00:37:34;32.48;30.72;34.81;;
66454;Laerm;75808;51.436;5.978;2024-03-08T00:37:45;32.95;31.49;34.77;;
66454;Laerm;75808;51.436;5.978;2024-03-08T00:37:58;33.23;31.36;35.30;;
66454;Laerm;75808;51.436;5.978;2024-03-08T00:38:08;33.30;31.24;35.44;;
66454;Laerm;75808;51.436;5.978;2024-03-08T00:38:18;33.08;31.30;34.80;;
66454;Laerm;75808;51.436;5.978;2024-03-08T00:38:29;33.07;31.36;34.88;;
66454;Laerm;75808;51.436;5.978;2024-03-08T00:38:39;32.44;30.49;34.27;;
66454;Laerm;75808;51.436;5.978;2024-03-08T00:38:49;32.61;30.81;34.54;;
66454;Laerm;75808;51.436;5.978;2024-03-08T00:39:00;33.18;31.56;35.40;;
66454;Laerm;75808;51.436;5.978;2024-03-08T00:39:10;32.64;31.16;34.66;;
66454;Laerm;75808;51.436;5.978;2024-03-08T00:39:22;36.35;31.53;41.15;;
66454;Laerm;75808;51.436;5.978;2024-03-08T00:39:32;35.00;32.50;42.37;;
66454;Laerm;75808;51.436;5.978;2024-03-08T00:39:43;33.33;30.97;35.04;;
66454;Laerm;75808;51.436;5.978;2024-03-08T00:39:53;32.60;30.81;34.16;;
66454;Laerm;75808;51.436;5.978;2024-03-08T00:40:04;32.16;30.12;34.09;;
66454;Laerm;75808;51.436;5.978;2024-03-08T00:40:17;32.32;30.19;33.94;;
66454;Laerm;75808;51.436;5.978;2024-03-08T00:40:28;32.46;30.45;34.57;;
66454;Laerm;75808;51.436;5.978;2024-03-08T00:40:38;32.48;30.69;34.47;;
66454;Laerm;75808;51.436;5.978;2024-03-08T00:40:50;32.44;30.77;34.25;;
66454;Laerm;75808;51.436;5.978;2024-03-08T00:41:01;32.41;30.60;34.03;;
66454;Laerm;75808;51.436;5.978;2024-03-08T00:41:12;32.14;30.06;35.14;;
66454;Laerm;75808;51.436;5.978;2024-03-08T00:41:22;31.98;29.99;33.97;;
66454;Laerm;75808;51.436;5.978;2024-03-08T00:41:33;32.08;30.12;33.44;;
66454;Laerm;75808;51.436;5.978;2024-03-08T00:41:43;32.25;30.50;34.17;;
66454;Laerm;75808;51.436;5.978;2024-03-08T00:41:54;32.84;30.81;34.60;;
66454;Laerm;75808;51.436;5.978;2024-03-08T00:42:04;32.81;30.96;34.87;;
66454;Laerm;75808;51.436;5.978;2024-03-08T00:42:18;33.31;31.17;36.39;;
66454;Laerm;75808;51.436;5.978;2024-03-08T00:42:29;31.79;30.18;33.90;;
66454;Laerm;75808;51.436;5.978;2024-03-08T00:42:39;32.42;30.23;35.45;;
66454;Laerm;75808;51.436;5.978;2024-03-08T00:42:51;32.27;30.70;34.64;;
66454;Laerm;75808;51.436;5.978;2024-03-08T00:43:03;32.12;30.58;33.67;;
66454;Laerm;75808;51.436;5.978;2024-03-08T00:43:14;32.28;30.36;34.32;;
66454;Laerm;75808;51.436;5.978;2024-03-08T00:43:25;32.02;30.58;33.97;;
66454;Laerm;75808;51.436;5.978;2024-03-08T00:43:36;31.78;30.11;33.50;;
66454;Laerm;75808;51.436;5.978;2024-03-08T00:43:46;31.80;30.11;33.79;;
66454;Laerm;75808;51.436;5.978;2024-03-08T00:43:57;32.10;30.05;44.32;;
66454;Laerm;75808;51.436;5.978;2024-03-08T00:44:08;31.50;30.01;33.23;;
66454;Laerm;75808;51.436;5.978;2024-03-08T00:44:20;32.00;29.75;33.89;;
66454;Laerm;75808;51.436;5.978;2024-03-08T00:44:30;31.71;30.02;33.86;;
66454;Laerm;75808;51.436;5.978;2024-03-08T00:44:41;31.46;30.17;34.16;;
66454;Laerm;75808;51.436;5.978;2024-03-08T00:44:52;32.15;30.27;34.25;;
66454;Laerm;75808;51.436;5.978;2024-03-08T00:45:02;44.16;32.21;55.14;;
66454;Laerm;75808;51.436;5.978;2024-03-08T00:45:12;42.79;31.51;54.09;;
66454;Laerm;75808;51.436;5.978;2024-03-08T00:45:23;31.74;30.14;33.58;;
66454;Laerm;75808;51.436;5.978;2024-03-08T00:45:33;31.40;29.85;42.29;;
66454;Laerm;75808;51.436;5.978;2024-03-08T00:45:43;31.42;29.58;33.24;;
66454;Laerm;75808;51.436;5.978;2024-03-08T00:45:54;31.27;29.54;32.78;;
66454;Laerm;75808;51.436;5.978;2024-03-08T00:46:04;31.53;29.94;33.70;;
66454;Laerm;75808;51.436;5.978;2024-03-08T00:46:14;31.10;29.47;32.58;;
66454;Laerm;75808;51.436;5.978;2024-03-08T00:46:25;31.42;29.77;33.04;;
66454;Laerm;75808;51.436;5.978;2024-03-08T00:46:35;31.20;29.62;33.02;;
66454;Laerm;75808;51.436;5.978;2024-03-08T00:46:45;31.23;29.57;33.17;;
66454;Laerm;75808;51.436;5.978;2024-03-08T00:46:56;31.27;29.98;33.03;;
66454;Laerm;75808;51.436;5.978;2024-03-08T00:47:06;30.98;29.41;32.71;;
66454;Laerm;75808;51.436;5.978;2024-03-08T00:47:17;31.47;29.49;32.97;;
66454;Laerm;75808;51.436;5.978;2024-03-08T00:47:27;31.30;29.88;32.66;;
66454;Laerm;75808;51.436;5.978;2024-03-08T00:47:37;31.48;30.03;33.17;;
66454;Laerm;75808;51.436;5.978;2024-03-08T00:47:47;31.57;30.09;33.20;;
66454;Laerm;75808;51.436;5.978;2024-03-08T00:47:58;31.22;29.58;32.83;;
66454;Laerm;75808;51.436;5.978;2024-03-08T00:48:08;31.60;30.15;34.79;;
66454;Laerm;75808;51.436;5.978;2024-03-08T00:48:19;31.77;29.93;33.42;;
66454;Laerm;75808;51.436;5.978;2024-03-08T00:48:29;31.29;29.84;32.76;;
66454;Laerm;75808;51.436;5.978;2024-03-08T00:48:41;31.46;30.08;33.57;;
66454;Laerm;75808;51.436;5.978;2024-03-08T00:48:53;31.47;30.10;32.88;;
66454;Laerm;75808;51.436;5.978;2024-03-08T00:49:03;31.44;29.67;33.69;;
66454;Laerm;75808;51.436;5.978;2024-03-08T00:49:14;31.66;29.95;34.11;;
66454;Laerm;75808;51.436;5.978;2024-03-08T00:49:25;31.82;29.77;37.98;;
66454;Laerm;75808;51.436;5.978;2024-03-08T00:49:35;33.48;29.79;48.63;;
66454;Laerm;75808;51.436;5.978;2024-03-08T00:49:49;32.08;29.75;38.25;;
66454;Laerm;75808;51.436;5.978;2024-03-08T00:49:59;31.73;29.97;33.77;;
66454;Laerm;75808;51.436;5.978;2024-03-08T00:50:10;31.99;29.67;34.21;;
66454;Laerm;75808;51.436;5.978;2024-03-08T00:50:20;32.56;30.46;34.82;;
66454;Laerm;75808;51.436;5.978;2024-03-08T00:50:30;35.94;31.06;41.94;;
66454;Laerm;75808;51.436;5.978;2024-03-08T00:50:40;40.71;31.71;47.29;;
66454;Laerm;75808;51.436;5.978;2024-03-08T00:50:51;33.67;30.93;36.05;;
66454;Laerm;75808;51.436;5.978;2024-03-08T00:51:01;32.99;30.66;35.15;;
66454;Laerm;75808;51.436;5.978;2024-03-08T00:51:12;32.16;30.34;33.66;;
66454;Laerm;75808;51.436;5.978;2024-03-08T00:51:22;32.50;30.45;35.27;;
66454;Laerm;75808;51.436;5.978;2024-03-08T00:51:33;32.01;30.30;34.42;;
66454;Laerm;75808;51.436;5.978;2024-03-08T00:51:43;32.07;30.53;33.92;;
66454;Laerm;75808;51.436;5.978;2024-03-08T00:51:53;32.08;30.33;34.17;;
66454;Laerm;75808;51.436;5.978;2024-03-08T00:52:04;32.47;30.17;35.59;;
66454;Laerm;75808;51.436;5.978;2024-03-08T00:52:18;32.51;30.05;34.36;;
66454;Laerm;75808;51.436;5.978;2024-03-08T00:52:28;32.29;30.57;34.24;;
66454;Laerm;75808;51.436;5.978;2024-03-08T00:52:39;31.81;29.94;33.27;;
66454;Laerm;75808;51.436;5.978;2024-03-08T00:52:49;32.03;30.03;34.67;;
66454;Laerm;75808;51.436;5.978;2024-03-08T00:53:00;32.43;30.64;34.14;;
66454;Laerm;75808;51.436;5.978;2024-03-08T00:53:10;33.18;31.41;35.27;;
66454;Laerm;75808;51.436;5.978;2024-03-08T00:53:21;32.53;30.80;34.35;;
66454;Laerm;75808;51.436;5.978;2024-03-08T00:53:31;33.50;31.69;35.67;;
66454;Laerm;75808;51.436;5.978;2024-03-08T00:53:42;32.75;30.71;37.51;;
66454;Laerm;75808;51.436;5.978;2024-03-08T00:53:53;32.28;30.28;34.33;;
66454;Laerm;75808;51.436;5.978;2024-03-08T00:54:03;31.79;29.63;33.34;;
66454;Laerm;75808;51.436;5.978;2024-03-08T00:54:13;31.96;29.99;34.17;;
66454;Laerm;75808;51.436;5.978;2024-03-08T00:54:23;31.94;30.19;33.93;;
66454;Laerm;75808;51.436;5.978;2024-03-08T00:54:34;31.85;30.03;33.60;;
66454;Laerm;75808;51.436;5.978;2024-03-08T00:54:45;31.67;29.56;33.49;;
66454;Laerm;75808;51.436;5.978;2024-03-08T00:54:55;31.65;30.31;33.51;;
66454;Laerm;75808;51.436;5.978;2024-03-08T00:55:06;31.78;30.21;34.52;;
66454;Laerm;75808;51.436;5.978;2024-03-08T00:55:18;31.62;30.25;33.44;;
66454;Laerm;75808;51.436;5.978;2024-03-08T00:55:28;31.76;29.88;34.15;;
66454;Laerm;75808;51.436;5.978;2024-03-08T00:55:39;31.68;30.16;33.38;;
66454;Laerm;75808;51.436;5.978;2024-03-08T00:55:50;31.50;29.81;33.32;;
66454;Laerm;75808;51.436;5.978;2024-03-08T00:56:00;31.54;30.23;36.20;;
66454;Laerm;75808;51.436;5.978;2024-03-08T00:56:10;31.54;29.98;32.84;;
66454;Laerm;75808;51.436;5.978;2024-03-08T00:56:20;31.53;29.93;33.20;;
66454;Laerm;75808;51.436;5.978;2024-03-08T00:56:34;31.73;29.95;33.16;;
66454;Laerm;75808;51.436;5.978;2024-03-08T00:56:45;31.51;29.36;32.96;;
66454;Laerm;75808;51.436;5.978;2024-03-08T00:56:56;31.84;30.15;33.39;;
66454;Laerm;75808;51.436;5.978;2024-03-08T00:57:06;31.66;29.76;33.69;;
66454;Laerm;75808;51.436;5.978;2024-03-08T00:57:16;31.84;30.33;33.79;;
66454;Laerm;75808;51.436;5.978;2024-03-08T00:57:27;32.64;30.31;34.73;;
66454;Laerm;75808;51.436;5.978;2024-03-08T00:57:38;33.85;31.19;36.92;;
66454;Laerm;75808;51.436;5.978;2024-03-08T00:57:48;37.12;30.94;40.99;;
66454;Laerm;75808;51.436;5.978;2024-03-08T00:57:59;40.77;35.26;43.78;;
66454;Laerm;75808;51.436;5.978;2024-03-08T00:58:09;40.61;36.80;43.70;;
66454;Laerm;75808;51.436;5.978;2024-03-08T00:58:19;41.27;36.58;44.85;;
66454;Laerm;75808;51.436;5.978;2024-03-08T00:58:30;38.74;35.00;42.97;;
66454;Laerm;75808;51.436;5.978;2024-03-08T00:58:40;35.20;32.52;37.56;;
66454;Laerm;75808;51.436;5.978;2024-03-08T00:58:50;36.04;33.26;38.58;;
66454;Laerm;75808;51.436;5.978;2024-03-08T00:59:01;42.21;36.41;47.16;;
66454;Laerm;75808;51.436;5.978;2024-03-08T00:59:12;39.25;34.83;43.10;;
66454;Laerm;75808;51.436;5.978;2024-03-08T00:59:24;35.68;32.33;39.88;;
66454;Laerm;75808;51.436;5.978;2024-03-08T00:59:34;32.15;30.63;33.81;;
66454;Laerm;75808;51.436;5.978;2024-03-08T00:59:44;31.44;30.28;32.70;;
66454;Laerm;75808;51.436;5.978;2024-03-08T00:59:55;31.43;29.93;33.11;;
66454;Laerm;75808;51.436;5.978;2024-03-08T01:00:06;46.54;30.05;60.14;;